sensor_id;sensor_type;location;lat;lon;timestamp;P1;durP1;ratioP1;P2;durP2;ratioP2
15261;SDS011;7733;51.554;13.590;2022-07-06T00:01:16;1.17;;;1.00;;
15261;SDS011;7733;51.554;13.590;2022-07-06T00:03:43;1.00;;;1.00;;
15261;SDS011;7733;51.554;13.590;2022-07-06T00:06:08;1.50;;;1.10;;
15261;SDS011;7733;51.554;13.590;2022-07-06T00:08:34;1.10;;;1.00;;
15261;SDS011;7733;51.554;13.590;2022-07-06T00:11:00;1.17;;;1.07;;
15261;SDS011;7733;51.554;13.590;2022-07-06T00:13:26;1.30;;;1.07;;
15261;SDS011;7733;51.554;13.590;2022-07-06T00:15:52;1.40;;;1.30;;
15261;SDS011;7733;51.554;13.590;2022-07-06T00:18:18;1.27;;;1.17;;
15261;SDS011;7733;51.554;13.590;2022-07-06T00:20:44;1.60;;;1.50;;
15261;SDS011;7733;51.554;13.590;2022-07-06T00:23:10;3.17;;;1.40;;
15261;SDS011;7733;51.554;13.590;2022-07-06T00:25:36;3.07;;;1.40;;
15261;SDS011;7733;51.554;13.590;2022-07-06T00:28:02;1.87;;;1.37;;
15261;SDS011;7733;51.554;13.590;2022-07-06T00:30:28;3.13;;;1.23;;
15261;SDS011;7733;51.554;13.590;2022-07-06T00:32:53;3.23;;;1.47;;
15261;SDS011;7733;51.554;13.590;2022-07-06T00:35:19;3.03;;;1.20;;
15261;SDS011;7733;51.554;13.590;2022-07-06T00:37:45;2.07;;;1.27;;
15261;SDS011;7733;51.554;13.590;2022-07-06T00:40:10;1.20;;;1.07;;
15261;SDS011;7733;51.554;13.590;2022-07-06T00:42:40;2.10;;;1.43;;
15261;SDS011;7733;51.554;13.590;2022-07-06T00:45:08;1.63;;;1.20;;
15261;SDS011;7733;51.554;13.590;2022-07-06T00:47:35;1.03;;;0.90;;
15261;SDS011;7733;51.554;13.590;2022-07-06T00:50:02;2.20;;;1.30;;
15261;SDS011;7733;51.554;13.590;2022-07-06T00:52:48;1.63;;;1.40;;
15261;SDS011;7733;51.554;13.590;2022-07-06T00:55:17;1.63;;;1.40;;
15261;SDS011;7733;51.554;13.590;2022-07-06T00:57:50;1.23;;;1.10;;
15261;SDS011;7733;51.554;13.590;2022-07-06T01:00:17;3.60;;;1.60;;
15261;SDS011;7733;51.554;13.590;2022-07-06T01:02:46;1.37;;;1.27;;
15261;SDS011;7733;51.554;13.590;2022-07-06T01:05:14;4.13;;;1.63;;
15261;SDS011;7733;51.554;13.590;2022-07-06T01:07:41;2.70;;;1.23;;
15261;SDS011;7733;51.554;13.590;2022-07-06T01:10:10;1.60;;;1.50;;
15261;SDS011;7733;51.554;13.590;2022-07-06T01:12:38;1.40;;;1.23;;
15261;SDS011;7733;51.554;13.590;2022-07-06T01:15:07;1.10;;;1.10;;
15261;SDS011;7733;51.554;13.590;2022-07-06T01:17:39;3.40;;;1.47;;
15261;SDS011;7733;51.554;13.590;2022-07-06T01:22:45;2.70;;;1.50;;
15261;SDS011;7733;51.554;13.590;2022-07-06T01:25:13;1.43;;;1.07;;
15261;SDS011;7733;51.554;13.590;2022-07-06T01:27:39;1.60;;;1.47;;
15261;SDS011;7733;51.554;13.590;2022-07-06T01:30:13;2.40;;;1.10;;
15261;SDS011;7733;51.554;13.590;2022-07-06T01:32:42;1.57;;;1.47;;
15261;SDS011;7733;51.554;13.590;2022-07-06T01:35:09;2.90;;;1.47;;
15261;SDS011;7733;51.554;13.590;2022-07-06T01:37:38;2.30;;;1.30;;
15261;SDS011;7733;51.554;13.590;2022-07-06T01:40:05;2.03;;;1.30;;
15261;SDS011;7733;51.554;13.590;2022-07-06T01:42:34;2.13;;;1.10;;
15261;SDS011;7733;51.554;13.590;2022-07-06T01:45:00;1.47;;;1.33;;
15261;SDS011;7733;51.554;13.590;2022-07-06T01:47:27;1.40;;;1.40;;
15261;SDS011;7733;51.554;13.590;2022-07-06T01:49:53;1.67;;;1.30;;
15261;SDS011;7733;51.554;13.590;2022-07-06T01:52:19;1.80;;;1.67;;
15261;SDS011;7733;51.554;13.590;2022-07-06T01:54:44;1.20;;;1.20;;
15261;SDS011;7733;51.554;13.590;2022-07-06T01:57:10;2.33;;;1.33;;
15261;SDS011;7733;51.554;13.590;2022-07-06T01:59:36;1.47;;;1.37;;
15261;SDS011;7733;51.554;13.590;2022-07-06T02:02:02;1.87;;;1.40;;
15261;SDS011;7733;51.554;13.590;2022-07-06T02:04:27;1.90;;;1.60;;
15261;SDS011;7733;51.554;13.590;2022-07-06T02:06:53;2.10;;;1.90;;
15261;SDS011;7733;51.554;13.590;2022-07-06T02:09:19;2.03;;;1.67;;
15261;SDS011;7733;51.554;13.590;2022-07-06T02:11:44;1.67;;;1.57;;
15261;SDS011;7733;51.554;13.590;2022-07-06T02:14:10;1.47;;;1.37;;
15261;SDS011;7733;51.554;13.590;2022-07-06T02:16:36;2.33;;;1.60;;
15261;SDS011;7733;51.554;13.590;2022-07-06T02:19:02;3.60;;;1.93;;
15261;SDS011;7733;51.554;13.590;2022-07-06T02:21:28;1.90;;;1.80;;
15261;SDS011;7733;51.554;13.590;2022-07-06T02:23:54;3.27;;;1.60;;
15261;SDS011;7733;51.554;13.590;2022-07-06T02:26:19;2.00;;;1.30;;
15261;SDS011;7733;51.554;13.590;2022-07-06T02:28:45;1.47;;;1.40;;
15261;SDS011;7733;51.554;13.590;2022-07-06T02:31:12;2.80;;;2.20;;
15261;SDS011;7733;51.554;13.590;2022-07-06T02:33:40;1.80;;;1.70;;
15261;SDS011;7733;51.554;13.590;2022-07-06T02:36:06;3.60;;;1.80;;
15261;SDS011;7733;51.554;13.590;2022-07-06T02:38:32;1.63;;;1.53;;
15261;SDS011;7733;51.554;13.590;2022-07-06T02:40:58;1.70;;;1.57;;
15261;SDS011;7733;51.554;13.590;2022-07-06T02:43:24;4.00;;;1.70;;
15261;SDS011;7733;51.554;13.590;2022-07-06T02:45:49;2.80;;;1.70;;
15261;SDS011;7733;51.554;13.590;2022-07-06T02:48:15;2.83;;;1.93;;
15261;SDS011;7733;51.554;13.590;2022-07-06T02:50:41;2.83;;;1.77;;
15261;SDS011;7733;51.554;13.590;2022-07-06T02:53:06;2.10;;;2.00;;
15261;SDS011;7733;51.554;13.590;2022-07-06T02:55:32;2.13;;;2.00;;
15261;SDS011;7733;51.554;13.590;2022-07-06T02:57:58;2.97;;;1.90;;
15261;SDS011;7733;51.554;13.590;2022-07-06T03:00:24;1.80;;;1.70;;
15261;SDS011;7733;51.554;13.590;2022-07-06T03:02:49;2.93;;;1.70;;
15261;SDS011;7733;51.554;13.590;2022-07-06T03:05:15;2.10;;;2.00;;
15261;SDS011;7733;51.554;13.590;2022-07-06T03:07:41;4.30;;;1.90;;
15261;SDS011;7733;51.554;13.590;2022-07-06T03:10:06;1.90;;;1.80;;
15261;SDS011;7733;51.554;13.590;2022-07-06T03:12:32;2.03;;;1.90;;
15261;SDS011;7733;51.554;13.590;2022-07-06T03:14:58;2.40;;;2.20;;
15261;SDS011;7733;51.554;13.590;2022-07-06T03:17:24;2.57;;;1.90;;
15261;SDS011;7733;51.554;13.590;2022-07-06T03:19:49;2.13;;;2.00;;
15261;SDS011;7733;51.554;13.590;2022-07-06T03:22:15;2.13;;;2.03;;
15261;SDS011;7733;51.554;13.590;2022-07-06T03:24:41;2.00;;;1.90;;
15261;SDS011;7733;51.554;13.590;2022-07-06T03:27:06;3.10;;;2.10;;
15261;SDS011;7733;51.554;13.590;2022-07-06T03:29:32;2.33;;;2.13;;
15261;SDS011;7733;51.554;13.590;2022-07-06T03:31:57;2.30;;;2.20;;
15261;SDS011;7733;51.554;13.590;2022-07-06T03:34:23;6.73;;;2.07;;
15261;SDS011;7733;51.554;13.590;2022-07-06T03:36:49;4.77;;;2.50;;
15261;SDS011;7733;51.554;13.590;2022-07-06T03:39:14;2.30;;;2.10;;
15261;SDS011;7733;51.554;13.590;2022-07-06T03:41:40;2.53;;;2.33;;
15261;SDS011;7733;51.554;13.590;2022-07-06T03:44:06;2.20;;;2.10;;
15261;SDS011;7733;51.554;13.590;2022-07-06T03:46:31;3.13;;;2.50;;
15261;SDS011;7733;51.554;13.590;2022-07-06T03:48:57;3.47;;;2.30;;
15261;SDS011;7733;51.554;13.590;2022-07-06T03:51:22;2.10;;;2.00;;
15261;SDS011;7733;51.554;13.590;2022-07-06T03:53:48;4.93;;;2.17;;
15261;SDS011;7733;51.554;13.590;2022-07-06T03:56:14;2.70;;;2.33;;
15261;SDS011;7733;51.554;13.590;2022-07-06T03:58:58;3.57;;;2.00;;
15261;SDS011;7733;51.554;13.590;2022-07-06T04:01:26;2.30;;;2.10;;
15261;SDS011;7733;51.554;13.590;2022-07-06T04:03:53;2.57;;;1.60;;
15261;SDS011;7733;51.554;13.590;2022-07-06T04:06:18;5.80;;;2.20;;
15261;SDS011;7733;51.554;13.590;2022-07-06T04:08:45;2.23;;;1.90;;
15261;SDS011;7733;51.554;13.590;2022-07-06T04:11:10;2.10;;;2.00;;
15261;SDS011;7733;51.554;13.590;2022-07-06T04:13:36;1.97;;;1.87;;
15261;SDS011;7733;51.554;13.590;2022-07-06T04:16:03;2.33;;;2.00;;
15261;SDS011;7733;51.554;13.590;2022-07-06T04:18:31;3.67;;;2.00;;
15261;SDS011;7733;51.554;13.590;2022-07-06T04:20:57;3.50;;;2.00;;
15261;SDS011;7733;51.554;13.590;2022-07-06T04:23:23;4.97;;;2.00;;
15261;SDS011;7733;51.554;13.590;2022-07-06T04:25:49;3.30;;;1.93;;
15261;SDS011;7733;51.554;13.590;2022-07-06T04:28:15;3.63;;;1.80;;
15261;SDS011;7733;51.554;13.590;2022-07-06T04:30:40;2.20;;;1.90;;
15261;SDS011;7733;51.554;13.590;2022-07-06T04:33:07;1.67;;;1.57;;
15261;SDS011;7733;51.554;13.590;2022-07-06T04:35:32;1.90;;;1.47;;
15261;SDS011;7733;51.554;13.590;2022-07-06T04:37:58;3.87;;;1.90;;
15261;SDS011;7733;51.554;13.590;2022-07-06T04:40:24;3.57;;;1.67;;
15261;SDS011;7733;51.554;13.590;2022-07-06T04:42:49;2.67;;;1.80;;
15261;SDS011;7733;51.554;13.590;2022-07-06T04:45:15;4.47;;;1.40;;
15261;SDS011;7733;51.554;13.590;2022-07-06T04:47:41;1.63;;;1.50;;
15261;SDS011;7733;51.554;13.590;2022-07-06T04:50:08;4.00;;;1.37;;
15261;SDS011;7733;51.554;13.590;2022-07-06T04:52:34;1.80;;;1.30;;
15261;SDS011;7733;51.554;13.590;2022-07-06T04:55:00;2.33;;;1.30;;
15261;SDS011;7733;51.554;13.590;2022-07-06T04:57:29;2.60;;;1.00;;
15261;SDS011;7733;51.554;13.590;2022-07-06T04:59:55;1.97;;;1.10;;
15261;SDS011;7733;51.554;13.590;2022-07-06T05:02:21;1.67;;;1.20;;
15261;SDS011;7733;51.554;13.590;2022-07-06T05:04:46;1.93;;;1.03;;
15261;SDS011;7733;51.554;13.590;2022-07-06T05:07:12;2.07;;;1.10;;
15261;SDS011;7733;51.554;13.590;2022-07-06T05:09:38;1.27;;;1.03;;
15261;SDS011;7733;51.554;13.590;2022-07-06T05:12:04;1.97;;;1.03;;
15261;SDS011;7733;51.554;13.590;2022-07-06T05:14:30;2.77;;;1.03;;
15261;SDS011;7733;51.554;13.590;2022-07-06T05:16:55;2.00;;;1.10;;
15261;SDS011;7733;51.554;13.590;2022-07-06T05:19:21;1.87;;;0.80;;
15261;SDS011;7733;51.554;13.590;2022-07-06T05:21:47;1.80;;;1.00;;
15261;SDS011;7733;51.554;13.590;2022-07-06T05:24:12;2.20;;;1.10;;
15261;SDS011;7733;51.554;13.590;2022-07-06T05:26:38;1.00;;;0.80;;
15261;SDS011;7733;51.554;13.590;2022-07-06T05:29:04;1.10;;;1.00;;
15261;SDS011;7733;51.554;13.590;2022-07-06T05:31:29;2.17;;;1.30;;
15261;SDS011;7733;51.554;13.590;2022-07-06T05:33:55;3.13;;;0.90;;
15261;SDS011;7733;51.554;13.590;2022-07-06T05:36:20;1.87;;;0.93;;
15261;SDS011;7733;51.554;13.590;2022-07-06T05:38:46;1.40;;;1.10;;
15261;SDS011;7733;51.554;13.590;2022-07-06T05:41:12;1.50;;;0.90;;
15261;SDS011;7733;51.554;13.590;2022-07-06T05:43:37;2.63;;;0.70;;
15261;SDS011;7733;51.554;13.590;2022-07-06T05:46:03;1.73;;;0.93;;
15261;SDS011;7733;51.554;13.590;2022-07-06T05:48:29;1.83;;;0.73;;
15261;SDS011;7733;51.554;13.590;2022-07-06T05:51:14;2.43;;;1.03;;
15261;SDS011;7733;51.554;13.590;2022-07-06T05:53:39;2.63;;;1.30;;
15261;SDS011;7733;51.554;13.590;2022-07-06T05:56:05;1.97;;;0.80;;
15261;SDS011;7733;51.554;13.590;2022-07-06T05:58:31;3.03;;;1.07;;
15261;SDS011;7733;51.554;13.590;2022-07-06T06:00:57;1.20;;;1.00;;
15261;SDS011;7733;51.554;13.590;2022-07-06T06:03:22;1.23;;;0.90;;
15261;SDS011;7733;51.554;13.590;2022-07-06T06:05:48;0.90;;;0.80;;
15261;SDS011;7733;51.554;13.590;2022-07-06T06:08:14;1.67;;;0.90;;
15261;SDS011;7733;51.554;13.590;2022-07-06T06:10:40;1.73;;;0.97;;
15261;SDS011;7733;51.554;13.590;2022-07-06T06:13:06;1.07;;;0.87;;
15261;SDS011;7733;51.554;13.590;2022-07-06T06:15:31;1.10;;;0.93;;
15261;SDS011;7733;51.554;13.590;2022-07-06T06:17:57;2.03;;;0.90;;
15261;SDS011;7733;51.554;13.590;2022-07-06T06:20:23;1.80;;;0.80;;
15261;SDS011;7733;51.554;13.590;2022-07-06T06:22:49;0.90;;;0.90;;
15261;SDS011;7733;51.554;13.590;2022-07-06T06:25:21;2.07;;;0.80;;
15261;SDS011;7733;51.554;13.590;2022-07-06T06:28:02;3.63;;;1.10;;
15261;SDS011;7733;51.554;13.590;2022-07-06T06:30:30;1.60;;;1.10;;
15261;SDS011;7733;51.554;13.590;2022-07-06T06:33:07;0.93;;;0.83;;
15261;SDS011;7733;51.554;13.590;2022-07-06T06:35:33;1.73;;;1.00;;
15261;SDS011;7733;51.554;13.590;2022-07-06T06:38:00;2.30;;;1.07;;
15261;SDS011;7733;51.554;13.590;2022-07-06T06:40:25;2.07;;;0.70;;
15261;SDS011;7733;51.554;13.590;2022-07-06T06:42:51;2.20;;;0.90;;
15261;SDS011;7733;51.554;13.590;2022-07-06T06:45:16;2.77;;;1.00;;
15261;SDS011;7733;51.554;13.590;2022-07-06T06:47:42;1.10;;;0.97;;
15261;SDS011;7733;51.554;13.590;2022-07-06T06:50:08;1.47;;;1.20;;
15261;SDS011;7733;51.554;13.590;2022-07-06T06:52:33;3.20;;;1.43;;
15261;SDS011;7733;51.554;13.590;2022-07-06T06:54:59;2.37;;;0.77;;
15261;SDS011;7733;51.554;13.590;2022-07-06T06:57:25;1.17;;;0.77;;
15261;SDS011;7733;51.554;13.590;2022-07-06T06:59:50;1.80;;;1.00;;
15261;SDS011;7733;51.554;13.590;2022-07-06T07:02:16;2.70;;;1.03;;
15261;SDS011;7733;51.554;13.590;2022-07-06T07:04:42;1.30;;;0.97;;
15261;SDS011;7733;51.554;13.590;2022-07-06T07:07:08;1.17;;;0.80;;
15261;SDS011;7733;51.554;13.590;2022-07-06T07:09:33;1.10;;;0.80;;
15261;SDS011;7733;51.554;13.590;2022-07-06T07:11:59;1.30;;;0.70;;
15261;SDS011;7733;51.554;13.590;2022-07-06T07:14:25;1.47;;;0.93;;
15261;SDS011;7733;51.554;13.590;2022-07-06T07:16:52;1.83;;;0.90;;
15261;SDS011;7733;51.554;13.590;2022-07-06T07:19:18;1.07;;;0.70;;
15261;SDS011;7733;51.554;13.590;2022-07-06T07:21:44;3.90;;;1.10;;
15261;SDS011;7733;51.554;13.590;2022-07-06T07:24:09;2.07;;;0.70;;
15261;SDS011;7733;51.554;13.590;2022-07-06T07:26:35;0.80;;;0.80;;
15261;SDS011;7733;51.554;13.590;2022-07-06T07:29:01;1.90;;;0.77;;
15261;SDS011;7733;51.554;13.590;2022-07-06T07:31:27;2.10;;;1.03;;
15261;SDS011;7733;51.554;13.590;2022-07-06T07:33:53;1.60;;;0.90;;
15261;SDS011;7733;51.554;13.590;2022-07-06T07:36:21;0.80;;;0.80;;
15261;SDS011;7733;51.554;13.590;2022-07-06T07:38:49;3.30;;;1.10;;
15261;SDS011;7733;51.554;13.590;2022-07-06T07:41:15;1.40;;;0.90;;
15261;SDS011;7733;51.554;13.590;2022-07-06T07:43:41;2.33;;;1.00;;
15261;SDS011;7733;51.554;13.590;2022-07-06T07:46:08;1.00;;;0.90;;
15261;SDS011;7733;51.554;13.590;2022-07-06T07:48:33;0.97;;;0.57;;
15261;SDS011;7733;51.554;13.590;2022-07-06T07:50:59;0.97;;;0.73;;
15261;SDS011;7733;51.554;13.590;2022-07-06T07:53:25;0.80;;;0.57;;
15261;SDS011;7733;51.554;13.590;2022-07-06T07:55:51;0.80;;;0.80;;
15261;SDS011;7733;51.554;13.590;2022-07-06T07:58:17;0.97;;;0.67;;
15261;SDS011;7733;51.554;13.590;2022-07-06T08:00:43;2.17;;;0.60;;
15261;SDS011;7733;51.554;13.590;2022-07-06T08:03:08;1.20;;;1.03;;
15261;SDS011;7733;51.554;13.590;2022-07-06T08:05:34;2.73;;;0.70;;
15261;SDS011;7733;51.554;13.590;2022-07-06T08:08:00;2.27;;;0.90;;
15261;SDS011;7733;51.554;13.590;2022-07-06T08:10:25;1.43;;;0.90;;
15261;SDS011;7733;51.554;13.590;2022-07-06T08:12:51;1.30;;;1.13;;
15261;SDS011;7733;51.554;13.590;2022-07-06T08:15:17;1.40;;;1.00;;
15261;SDS011;7733;51.554;13.590;2022-07-06T08:17:42;2.07;;;0.83;;
15261;SDS011;7733;51.554;13.590;2022-07-06T08:20:08;1.63;;;0.67;;
15261;SDS011;7733;51.554;13.590;2022-07-06T08:22:37;1.70;;;1.10;;
15261;SDS011;7733;51.554;13.590;2022-07-06T08:25:03;2.93;;;0.87;;
15261;SDS011;7733;51.554;13.590;2022-07-06T08:27:30;0.73;;;0.70;;
15261;SDS011;7733;51.554;13.590;2022-07-06T08:29:55;3.30;;;1.30;;
15261;SDS011;7733;51.554;13.590;2022-07-06T08:32:21;1.30;;;0.77;;
15261;SDS011;7733;51.554;13.590;2022-07-06T08:34:47;0.67;;;0.67;;
15261;SDS011;7733;51.554;13.590;2022-07-06T08:37:13;2.30;;;1.00;;
15261;SDS011;7733;51.554;13.590;2022-07-06T08:39:39;2.00;;;0.87;;
15261;SDS011;7733;51.554;13.590;2022-07-06T08:42:05;0.90;;;0.60;;
15261;SDS011;7733;51.554;13.590;2022-07-06T08:44:32;2.53;;;0.80;;
15261;SDS011;7733;51.554;13.590;2022-07-06T08:47:02;0.70;;;0.70;;
15261;SDS011;7733;51.554;13.590;2022-07-06T08:49:34;1.20;;;0.70;;
15261;SDS011;7733;51.554;13.590;2022-07-06T08:52:02;0.70;;;0.63;;
15261;SDS011;7733;51.554;13.590;2022-07-06T08:54:29;1.50;;;0.87;;
15261;SDS011;7733;51.554;13.590;2022-07-06T08:56:55;0.70;;;0.57;;
15261;SDS011;7733;51.554;13.590;2022-07-06T08:59:21;1.90;;;0.80;;
15261;SDS011;7733;51.554;13.590;2022-07-06T09:01:47;0.70;;;0.70;;
15261;SDS011;7733;51.554;13.590;2022-07-06T09:04:15;2.87;;;0.60;;
15261;SDS011;7733;51.554;13.590;2022-07-06T09:06:44;1.63;;;0.60;;
15261;SDS011;7733;51.554;13.590;2022-07-06T09:09:11;0.67;;;0.60;;
15261;SDS011;7733;51.554;13.590;2022-07-06T09:11:49;0.63;;;0.63;;
15261;SDS011;7733;51.554;13.590;2022-07-06T09:14:16;1.30;;;0.73;;
15261;SDS011;7733;51.554;13.590;2022-07-06T09:16:44;3.27;;;1.03;;
15261;SDS011;7733;51.554;13.590;2022-07-06T09:19:12;1.10;;;0.80;;
15261;SDS011;7733;51.554;13.590;2022-07-06T09:21:38;3.07;;;0.90;;
15261;SDS011;7733;51.554;13.590;2022-07-06T09:24:07;1.23;;;0.90;;
15261;SDS011;7733;51.554;13.590;2022-07-06T09:26:35;1.10;;;0.90;;
15261;SDS011;7733;51.554;13.590;2022-07-06T09:29:01;0.83;;;0.70;;
15261;SDS011;7733;51.554;13.590;2022-07-06T09:31:28;1.90;;;1.10;;
15261;SDS011;7733;51.554;13.590;2022-07-06T09:33:55;2.10;;;0.87;;
15261;SDS011;7733;51.554;13.590;2022-07-06T09:36:44;1.77;;;0.83;;
15261;SDS011;7733;51.554;13.590;2022-07-06T09:39:28;1.47;;;0.70;;
15261;SDS011;7733;51.554;13.590;2022-07-06T09:41:58;0.97;;;0.97;;
15261;SDS011;7733;51.554;13.590;2022-07-06T09:44:27;0.90;;;0.90;;
15261;SDS011;7733;51.554;13.590;2022-07-06T09:46:55;1.63;;;1.17;;
15261;SDS011;7733;51.554;13.590;2022-07-06T09:49:24;4.67;;;1.10;;
15261;SDS011;7733;51.554;13.590;2022-07-06T09:52:01;1.57;;;0.70;;
15261;SDS011;7733;51.554;13.590;2022-07-06T09:54:33;1.57;;;0.60;;
15261;SDS011;7733;51.554;13.590;2022-07-06T09:57:00;4.10;;;1.00;;
15261;SDS011;7733;51.554;13.590;2022-07-06T09:59:28;4.13;;;1.00;;
15261;SDS011;7733;51.554;13.590;2022-07-06T10:01:56;0.90;;;0.70;;
15261;SDS011;7733;51.554;13.590;2022-07-06T10:04:24;1.83;;;1.00;;
15261;SDS011;7733;51.554;13.590;2022-07-06T10:06:52;1.73;;;0.90;;
15261;SDS011;7733;51.554;13.590;2022-07-06T10:09:21;1.43;;;1.00;;
15261;SDS011;7733;51.554;13.590;2022-07-06T10:11:50;0.70;;;0.70;;
15261;SDS011;7733;51.554;13.590;2022-07-06T10:14:22;2.13;;;1.03;;
15261;SDS011;7733;51.554;13.590;2022-07-06T10:16:51;1.50;;;0.97;;
15261;SDS011;7733;51.554;13.590;2022-07-06T10:19:18;1.93;;;1.03;;
15261;SDS011;7733;51.554;13.590;2022-07-06T10:21:46;1.43;;;0.80;;
15261;SDS011;7733;51.554;13.590;2022-07-06T10:24:12;0.80;;;0.77;;
15261;SDS011;7733;51.554;13.590;2022-07-06T10:26:39;0.70;;;0.70;;
15261;SDS011;7733;51.554;13.590;2022-07-06T10:29:06;0.70;;;0.70;;
15261;SDS011;7733;51.554;13.590;2022-07-06T10:31:33;2.77;;;0.70;;
15261;SDS011;7733;51.554;13.590;2022-07-06T10:34:13;2.30;;;1.00;;
15261;SDS011;7733;51.554;13.590;2022-07-06T10:36:43;0.87;;;0.67;;
15261;SDS011;7733;51.554;13.590;2022-07-06T10:39:16;0.50;;;0.50;;
15261;SDS011;7733;51.554;13.590;2022-07-06T10:50:35;1.37;;;0.80;;
15261;SDS011;7733;51.554;13.590;2022-07-06T10:53:02;2.80;;;0.90;;
15261;SDS011;7733;51.554;13.590;2022-07-06T10:55:36;0.80;;;0.80;;
15261;SDS011;7733;51.554;13.590;2022-07-06T10:58:04;2.27;;;0.70;;
15261;SDS011;7733;51.554;13.590;2022-07-06T11:06:08;1.40;;;0.50;;
15261;SDS011;7733;51.554;13.590;2022-07-06T11:14:03;1.90;;;0.60;;
15261;SDS011;7733;51.554;13.590;2022-07-06T11:16:31;1.67;;;0.90;;
15261;SDS011;7733;51.554;13.590;2022-07-06T11:19:01;1.20;;;0.60;;
15261;SDS011;7733;51.554;13.590;2022-07-06T11:21:45;0.97;;;0.83;;
15261;SDS011;7733;51.554;13.590;2022-07-06T11:24:15;0.50;;;0.50;;
15261;SDS011;7733;51.554;13.590;2022-07-06T11:26:44;1.47;;;0.70;;
15261;SDS011;7733;51.554;13.590;2022-07-06T11:29:16;1.33;;;0.60;;
15261;SDS011;7733;51.554;13.590;2022-07-06T11:31:49;0.57;;;0.50;;
15261;SDS011;7733;51.554;13.590;2022-07-06T11:34:22;1.13;;;0.60;;
15261;SDS011;7733;51.554;13.590;2022-07-06T11:36:49;0.83;;;0.70;;
15261;SDS011;7733;51.554;13.590;2022-07-06T11:39:27;1.23;;;1.03;;
15261;SDS011;7733;51.554;13.590;2022-07-06T11:41:55;0.83;;;0.60;;
15261;SDS011;7733;51.554;13.590;2022-07-06T11:44:22;1.90;;;0.70;;
15261;SDS011;7733;51.554;13.590;2022-07-06T11:46:48;2.67;;;0.77;;
15261;SDS011;7733;51.554;13.590;2022-07-06T11:49:15;1.77;;;0.70;;
15261;SDS011;7733;51.554;13.590;2022-07-06T11:51:42;0.80;;;0.60;;
15261;SDS011;7733;51.554;13.590;2022-07-06T11:54:11;3.33;;;0.80;;
15261;SDS011;7733;51.554;13.590;2022-07-06T11:56:48;2.53;;;0.83;;
15261;SDS011;7733;51.554;13.590;2022-07-06T11:59:19;1.33;;;0.80;;
15261;SDS011;7733;51.554;13.590;2022-07-06T12:02:00;0.93;;;0.80;;
15261;SDS011;7733;51.554;13.590;2022-07-06T12:04:36;0.87;;;0.70;;
15261;SDS011;7733;51.554;13.590;2022-07-06T12:07:05;3.17;;;0.80;;
15261;SDS011;7733;51.554;13.590;2022-07-06T12:09:33;0.60;;;0.60;;
15261;SDS011;7733;51.554;13.590;2022-07-06T12:12:02;0.60;;;0.60;;
15261;SDS011;7733;51.554;13.590;2022-07-06T12:14:30;2.57;;;0.87;;
15261;SDS011;7733;51.554;13.590;2022-07-06T12:17:02;0.90;;;0.70;;
15261;SDS011;7733;51.554;13.590;2022-07-06T12:19:30;1.73;;;1.00;;
15261;SDS011;7733;51.554;13.590;2022-07-06T12:21:56;0.80;;;0.70;;
15261;SDS011;7733;51.554;13.590;2022-07-06T12:24:23;1.03;;;0.53;;
15261;SDS011;7733;51.554;13.590;2022-07-06T12:26:53;2.43;;;0.80;;
15261;SDS011;7733;51.554;13.590;2022-07-06T12:29:20;1.67;;;0.67;;
15261;SDS011;7733;51.554;13.590;2022-07-06T12:34:20;2.20;;;0.60;;
15261;SDS011;7733;51.554;13.590;2022-07-06T12:36:59;1.43;;;0.70;;
15261;SDS011;7733;51.554;13.590;2022-07-06T12:39:40;1.13;;;0.70;;
15261;SDS011;7733;51.554;13.590;2022-07-06T12:42:08;1.03;;;0.50;;
15261;SDS011;7733;51.554;13.590;2022-07-06T12:44:41;3.27;;;0.67;;
15261;SDS011;7733;51.554;13.590;2022-07-06T12:47:09;0.90;;;0.53;;
15261;SDS011;7733;51.554;13.590;2022-07-06T12:49:36;2.60;;;1.07;;
15261;SDS011;7733;51.554;13.590;2022-07-06T12:57:18;0.83;;;0.53;;
15261;SDS011;7733;51.554;13.590;2022-07-06T13:02:29;0.73;;;0.60;;
15261;SDS011;7733;51.554;13.590;2022-07-06T13:05:03;0.50;;;0.50;;
15261;SDS011;7733;51.554;13.590;2022-07-06T13:07:36;0.97;;;0.60;;
15261;SDS011;7733;51.554;13.590;2022-07-06T13:10:09;0.77;;;0.53;;
15261;SDS011;7733;51.554;13.590;2022-07-06T13:12:36;0.80;;;0.80;;
15261;SDS011;7733;51.554;13.590;2022-07-06T13:15:04;0.87;;;0.57;;
15261;SDS011;7733;51.554;13.590;2022-07-06T13:17:31;0.87;;;0.70;;
15261;SDS011;7733;51.554;13.590;2022-07-06T13:19:57;0.50;;;0.50;;
15261;SDS011;7733;51.554;13.590;2022-07-06T13:22:23;1.33;;;0.70;;
15261;SDS011;7733;51.554;13.590;2022-07-06T13:24:48;0.83;;;0.60;;
15261;SDS011;7733;51.554;13.590;2022-07-06T13:27:14;1.63;;;0.80;;
15261;SDS011;7733;51.554;13.590;2022-07-06T13:29:40;0.73;;;0.73;;
15261;SDS011;7733;51.554;13.590;2022-07-06T13:32:06;0.63;;;0.60;;
15261;SDS011;7733;51.554;13.590;2022-07-06T13:34:32;2.20;;;0.80;;
15261;SDS011;7733;51.554;13.590;2022-07-06T13:37:00;1.43;;;0.73;;
15261;SDS011;7733;51.554;13.590;2022-07-06T13:39:26;0.73;;;0.70;;
15261;SDS011;7733;51.554;13.590;2022-07-06T13:41:52;0.80;;;0.60;;
15261;SDS011;7733;51.554;13.590;2022-07-06T13:44:19;1.87;;;0.70;;
15261;SDS011;7733;51.554;13.590;2022-07-06T13:46:45;0.60;;;0.60;;
15261;SDS011;7733;51.554;13.590;2022-07-06T13:49:11;1.20;;;0.70;;
15261;SDS011;7733;51.554;13.590;2022-07-06T13:51:37;2.33;;;0.63;;
15261;SDS011;7733;51.554;13.590;2022-07-06T13:54:03;1.03;;;0.60;;
15261;SDS011;7733;51.554;13.590;2022-07-06T13:56:29;1.50;;;0.70;;
15261;SDS011;7733;51.554;13.590;2022-07-06T13:58:55;0.63;;;0.50;;
15261;SDS011;7733;51.554;13.590;2022-07-06T14:01:21;0.77;;;0.53;;
15261;SDS011;7733;51.554;13.590;2022-07-06T14:03:47;0.87;;;0.60;;
15261;SDS011;7733;51.554;13.590;2022-07-06T14:06:14;0.97;;;0.60;;
15261;SDS011;7733;51.554;13.590;2022-07-06T14:08:41;1.03;;;0.40;;
15261;SDS011;7733;51.554;13.590;2022-07-06T14:11:08;0.80;;;0.40;;
15261;SDS011;7733;51.554;13.590;2022-07-06T14:13:34;0.50;;;0.50;;
15261;SDS011;7733;51.554;13.590;2022-07-06T14:16:02;0.97;;;0.50;;
15261;SDS011;7733;51.554;13.590;2022-07-06T14:18:29;1.60;;;0.50;;
15261;SDS011;7733;51.554;13.590;2022-07-06T14:20:55;2.20;;;0.50;;
15261;SDS011;7733;51.554;13.590;2022-07-06T14:23:21;2.20;;;1.67;;
15261;SDS011;7733;51.554;13.590;2022-07-06T14:25:48;13.23;;;12.23;;
15261;SDS011;7733;51.554;13.590;2022-07-06T14:28:15;12.20;;;10.37;;
15261;SDS011;7733;51.554;13.590;2022-07-06T14:30:42;1.80;;;1.70;;
15261;SDS011;7733;51.554;13.590;2022-07-06T14:33:10;1.47;;;0.60;;
15261;SDS011;7733;51.554;13.590;2022-07-06T14:35:38;2.80;;;0.90;;
15261;SDS011;7733;51.554;13.590;2022-07-06T14:38:08;1.63;;;0.70;;
15261;SDS011;7733;51.554;13.590;2022-07-06T14:40:34;1.20;;;0.77;;
15261;SDS011;7733;51.554;13.590;2022-07-06T14:43:01;4.93;;;0.80;;
15261;SDS011;7733;51.554;13.590;2022-07-06T14:45:28;0.67;;;0.40;;
15261;SDS011;7733;51.554;13.590;2022-07-06T14:47:54;0.90;;;0.63;;
15261;SDS011;7733;51.554;13.590;2022-07-06T14:50:20;1.20;;;0.60;;
15261;SDS011;7733;51.554;13.590;2022-07-06T14:52:50;0.60;;;0.60;;
15261;SDS011;7733;51.554;13.590;2022-07-06T14:55:16;0.70;;;0.53;;
15261;SDS011;7733;51.554;13.590;2022-07-06T14:57:42;1.07;;;0.73;;
15261;SDS011;7733;51.554;13.590;2022-07-06T15:00:09;1.87;;;1.77;;
15261;SDS011;7733;51.554;13.590;2022-07-06T15:02:35;0.80;;;0.80;;
15261;SDS011;7733;51.554;13.590;2022-07-06T15:05:01;1.67;;;1.57;;
15261;SDS011;7733;51.554;13.590;2022-07-06T15:07:27;1.17;;;0.50;;
15261;SDS011;7733;51.554;13.590;2022-07-06T15:09:54;2.13;;;0.87;;
15261;SDS011;7733;51.554;13.590;2022-07-06T15:12:20;0.90;;;0.90;;
15261;SDS011;7733;51.554;13.590;2022-07-06T15:14:46;2.23;;;1.07;;
15261;SDS011;7733;51.554;13.590;2022-07-06T15:17:11;1.00;;;0.90;;
15261;SDS011;7733;51.554;13.590;2022-07-06T15:19:37;0.77;;;0.50;;
15261;SDS011;7733;51.554;13.590;2022-07-06T15:22:03;0.67;;;0.43;;